Time;durP1;ratioP1;P1;durP2;ratioP2;P2;SDS_P1;SDS_P2;PMS_P1;PMS_P2;Temp;Humidity;BMP_temperature;BMP_pressure;BME280_temperature;BME280_humidity;BME280_pressure;Samples;Min_cycle;Max_cycle;Signal;HPM_P1;HPM_P2
2022/04/22 00:01:09;;;;;;;25.48;14.63;;;;;;;;;;5054225;28;20024;-75
2022/04/22 00:03:35;;;;;;;23.35;13.45;;;;;;;;;;5054187;28;20382;-77
2022/04/22 00:06:01;;;;;;;24.23;14.38;;;;;;;;;;5054437;28;20024;-76
2022/04/22 00:08:26;;;;;;;24.30;14.60;;;;;;;;;;5054105;28;20020;-76
2022/04/22 00:13:35;;;;;;;28.10;15.10;;;;;;;;;;5054025;28;20039;-76
2022/04/22 00:16:02;;;;;;;28.23;14.43;;;;;;;;;;5054791;28;20390;-75
2022/04/22 00:18:27;;;;;;;26.95;14.73;;;;;;;;;;5053855;28;20025;-76
2022/04/22 00:20:52;;;;;;;25.23;13.50;;;;;;;;;;5053255;28;20029;-76
2022/04/22 00:23:17;;;;;;;27.88;15.75;;;;;;;;;;5054075;28;20021;-76
2022/04/22 00:25:42;;;;;;;26.95;15.15;;;;;;;;;;5053807;28;20029;-75
2022/04/22 00:28:08;;;;;;;26.20;14.13;;;;;;;;;;5053792;28;20469;-76
2022/04/22 00:30:33;;;;;;;28.67;15.48;;;;;;;;;;5053777;28;20755;-75
2022/04/22 00:32:58;;;;;;;27.87;15.90;;;;;;;;;;5053821;28;20400;-75
2022/04/22 00:35:23;;;;;;;29.77;15.83;;;;;;;;;;5053935;28;20704;-76
2022/04/22 00:37:49;;;;;;;32.50;15.90;;;;;;;;;;5053842;28;20679;-76
2022/04/22 00:40:15;;;;;;;26.83;15.15;;;;;;;;;;5052290;28;20029;-77
2022/04/22 00:42:40;;;;;;;30.20;16.88;;;;;;;;;;5052402;28;20021;-77
2022/04/22 00:45:06;;;;;;;29.00;15.98;;;;;;;;;;5052528;28;20048;-77
2022/04/22 00:47:31;;;;;;;29.65;16.27;;;;;;;;;;5052171;28;20025;-76
2022/04/22 00:49:56;;;;;;;30.08;16.30;;;;;;;;;;5053303;28;20121;-77
2022/04/22 00:52:23;;;;;;;30.75;16.38;;;;;;;;;;5053806;28;20017;-77
2022/04/22 00:54:49;;;;;;;26.35;15.02;;;;;;;;;;5053580;28;20104;-76
2022/04/22 00:57:15;;;;;;;31.35;16.73;;;;;;;;;;5052101;28;20052;-76
2022/04/22 00:59:41;;;;;;;30.40;17.15;;;;;;;;;;5052241;28;20029;-76
2022/04/22 01:02:06;;;;;;;29.80;15.95;;;;;;;;;;5053413;28;20103;-75
2022/04/22 01:09:59;;;;;;;;;;;;;;;;;;5053600;28;20127;-76
2022/04/22 01:12:28;;;;;;;28.52;15.27;;;;;;;;;;5053202;28;19966;-76
2022/04/22 01:14:54;;;;;;;30.35;15.80;;;;;;;;;;5053158;28;20038;-76
2022/04/22 01:17:20;;;;;;;31.38;16.77;;;;;;;;;;5053233;28;20579;-77
2022/04/22 01:19:45;;;;;;;30.25;16.58;;;;;;;;;;5053033;28;20100;-77
2022/04/22 01:22:11;;;;;;;30.70;16.30;;;;;;;;;;5057297;28;20020;-77
2022/04/22 01:24:37;;;;;;;29.73;16.65;;;;;;;;;;5059799;28;20029;-76
2022/04/22 01:27:03;;;;;;;32.63;16.55;;;;;;;;;;5058457;28;20527;-77
2022/04/22 01:29:28;;;;;;;36.83;17.00;;;;;;;;;;5058610;28;20074;-76
2022/04/22 01:31:54;;;;;;;34.38;16.65;;;;;;;;;;5058363;28;20429;-76
2022/04/22 01:34:19;;;;;;;30.35;16.52;;;;;;;;;;5059496;28;20033;-76
2022/04/22 01:36:44;;;;;;;28.58;15.68;;;;;;;;;;5059945;28;20048;-77
2022/04/22 01:39:09;;;;;;;30.85;16.48;;;;;;;;;;5060050;28;20549;-76
2022/04/22 01:41:35;;;;;;;30.70;17.45;;;;;;;;;;5059540;28;20600;-76
2022/04/22 01:44:00;;;;;;;29.70;16.58;;;;;;;;;;5059601;28;20386;-76
2022/04/22 01:46:25;;;;;;;31.25;17.33;;;;;;;;;;5058114;28;20379;-76
2022/04/22 01:48:50;;;;;;;32.90;17.60;;;;;;;;;;5059349;28;20036;-76
2022/04/22 01:51:16;;;;;;;30.75;16.88;;;;;;;;;;5058307;28;20025;-76
2022/04/22 01:53:41;;;;;;;36.22;17.52;;;;;;;;;;5059363;28;20033;-76
2022/04/22 01:56:06;;;;;;;30.20;16.98;;;;;;;;;;5059491;28;20036;-76
2022/04/22 01:58:35;;;;;;;32.83;18.35;;;;;;;;;;5059298;28;20474;-76
2022/04/22 02:01:00;;;;;;;33.78;17.75;;;;;;;;;;5059432;28;20037;-76
2022/04/22 02:03:25;;;;;;;35.88;17.27;;;;;;;;;;5059375;28;20450;-76
2022/04/22 02:05:51;;;;;;;39.38;17.92;;;;;;;;;;5059336;28;20461;-77
2022/04/22 02:08:16;;;;;;;38.35;18.42;;;;;;;;;;5059278;28;20025;-77
2022/04/22 02:10:43;;;;;;;32.80;17.80;;;;;;;;;;5058055;28;20017;-77
2022/04/22 02:13:08;;;;;;;31.88;17.63;;;;;;;;;;5059234;28;20389;-77
2022/04/22 02:15:33;;;;;;;36.28;18.42;;;;;;;;;;5059459;28;20032;-77
2022/04/22 02:17:59;;;;;;;33.15;18.23;;;;;;;;;;5059492;28;20600;-77
2022/04/22 02:20:24;;;;;;;39.40;18.70;;;;;;;;;;5059323;28;20035;-77
2022/04/22 02:22:49;;;;;;;34.03;18.83;;;;;;;;;;5059694;28;20345;-77
2022/04/22 02:25:14;;;;;;;36.70;19.10;;;;;;;;;;5058127;28;20285;-76
2022/04/22 02:30:24;;;;;;;36.17;19.20;;;;;;;;;;5059704;28;20291;-77
2022/04/22 02:32:50;;;;;;;35.90;19.38;;;;;;;;;;5056195;28;20028;-77
2022/04/22 02:35:15;;;;;;;32.83;18.13;;;;;;;;;;5055904;28;20021;-76
2022/04/22 02:37:41;;;;;;;37.47;18.27;;;;;;;;;;5055715;28;20532;-76
2022/04/22 02:40:06;;;;;;;42.80;19.98;;;;;;;;;;5054487;28;20024;-76
2022/04/22 02:45:28;;;;;;;33.90;18.00;;;;;;;;;;5056374;28;20028;-76
2022/04/22 02:47:56;;;;;;;36.65;19.08;;;;;;;;;;5055772;28;20099;-76
2022/04/22 02:50:22;;;;;;;35.13;17.73;;;;;;;;;;5055657;28;20031;-76
2022/04/22 02:52:48;;;;;;;34.00;18.15;;;;;;;;;;5055816;28;20029;-76
2022/04/22 02:55:13;;;;;;;35.50;19.25;;;;;;;;;;5055494;28;20068;-77
2022/04/22 02:57:41;;;;;;;36.20;18.73;;;;;;;;;;5055727;28;20028;-76
2022/04/22 03:00:06;;;;;;;36.55;19.83;;;;;;;;;;5055633;28;20061;-77
2022/04/22 03:02:32;;;;;;;36.60;19.50;;;;;;;;;;5055206;28;20522;-76
2022/04/22 03:04:58;;;;;;;38.17;19.17;;;;;;;;;;5055276;28;20078;-76
2022/04/22 03:07:23;;;;;;;36.20;18.63;;;;;;;;;;5055249;28;20028;-75
2022/04/22 03:09:48;;;;;;;37.80;19.63;;;;;;;;;;5055130;28;20162;-76
2022/04/22 03:12:14;;;;;;;36.67;18.75;;;;;;;;;;5055636;28;20033;-75
2022/04/22 03:14:39;;;;;;;36.58;19.75;;;;;;;;;;5055153;28;20029;-76
2022/04/22 03:17:06;;;;;;;42.35;20.90;;;;;;;;;;5055187;28;20016;-76
2022/04/22 03:19:31;;;;;;;37.85;20.55;;;;;;;;;;5053673;28;20025;-76
2022/04/22 03:21:57;;;;;;;47.22;23.95;;;;;;;;;;5055329;28;20482;-75
2022/04/22 03:24:22;;;;;;;46.55;23.85;;;;;;;;;;5054874;28;20070;-75
2022/04/22 03:26:47;;;;;;;47.13;23.15;;;;;;;;;;5055027;28;20025;-76
2022/04/22 03:29:13;;;;;;;36.72;20.05;;;;;;;;;;5054773;28;20055;-76
2022/04/22 03:31:38;;;;;;;37.03;18.08;;;;;;;;;;5053411;28;20017;-75
2022/04/22 03:34:03;;;;;;;33.10;17.87;;;;;;;;;;5054735;28;20371;-75
2022/04/22 03:36:28;;;;;;;34.17;17.88;;;;;;;;;;5054966;28;20607;-76
2022/04/22 03:38:54;;;;;;;33.55;17.55;;;;;;;;;;5054595;28;20116;-76
2022/04/22 03:41:19;;;;;;;31.75;16.95;;;;;;;;;;5054665;28;20025;-75
2022/04/22 03:43:45;;;;;;;30.50;17.00;;;;;;;;;;5054520;28;20040;-76
2022/04/22 03:46:10;;;;;;;30.48;16.52;;;;;;;;;;5053317;28;20253;-76
2022/04/22 03:48:36;;;;;;;30.50;15.90;;;;;;;;;;5054390;28;20075;-75
2022/04/22 03:51:01;;;;;;;29.37;15.43;;;;;;;;;;5054396;28;20250;-76
2022/04/22 03:53:26;;;;;;;26.15;14.90;;;;;;;;;;5054520;28;20302;-76
2022/04/22 03:55:51;;;;;;;28.13;14.68;;;;;;;;;;5054678;28;20025;-75
2022/04/22 03:58:17;;;;;;;25.30;14.40;;;;;;;;;;5054200;28;20508;-76
2022/04/22 04:00:48;;;;;;;25.08;13.55;;;;;;;;;;5054126;28;20767;-75
2022/04/22 04:03:15;;;;;;;27.30;13.25;;;;;;;;;;5054437;28;20446;-75
2022/04/22 04:05:47;;;;;;;19.95;12.35;;;;;;;;;;5054403;28;20032;-76
2022/04/22 04:08:12;;;;;;;26.65;12.77;;;;;;;;;;5054249;28;20032;-76
2022/04/22 04:16:06;;;;;;;21.48;12.35;;;;;;;;;;5054071;28;20040;-75
2022/04/22 04:18:33;;;;;;;20.48;12.90;;;;;;;;;;5052479;28;20021;-76
2022/04/22 04:23:44;;;;;;;19.25;11.48;;;;;;;;;;5054212;28;20032;-76
2022/04/22 04:26:09;;;;;;;20.95;11.45;;;;;;;;;;5053871;28;20029;-76
2022/04/22 04:28:36;;;;;;;19.20;11.88;;;;;;;;;;5053917;28;20033;-76
2022/04/22 04:31:02;;;;;;;19.60;12.23;;;;;;;;;;5053921;28;20114;-75
2022/04/22 04:33:28;;;;;;;19.50;11.68;;;;;;;;;;5052385;28;20497;-76
2022/04/22 04:35:53;;;;;;;17.48;10.60;;;;;;;;;;5052271;28;20063;-76
2022/04/22 04:38:19;;;;;;;18.45;11.23;;;;;;;;;;5052222;28;20102;-77
2022/04/22 04:40:44;;;;;;;17.60;10.23;;;;;;;;;;5053513;28;20466;-76
2022/04/22 04:43:09;;;;;;;16.23;9.02;;;;;;;;;;5053751;28;20363;-76
2022/04/22 04:45:35;;;;;;;17.75;9.38;;;;;;;;;;5053700;28;20021;-76
2022/04/22 04:48:00;;;;;;;16.92;9.82;;;;;;;;;;5053345;28;20024;-76
2022/04/22 04:50:26;;;;;;;14.82;9.68;;;;;;;;;;5053582;28;20028;-76
2022/04/22 04:52:51;;;;;;;17.27;9.95;;;;;;;;;;5053311;28;20044;-76
2022/04/22 04:55:17;;;;;;;17.48;10.10;;;;;;;;;;5053315;28;20540;-75
2022/04/22 04:57:42;;;;;;;16.55;9.32;;;;;;;;;;5052837;28;20367;-75
2022/04/22 05:00:09;;;;;;;16.13;9.15;;;;;;;;;;5053067;28;20037;-76
2022/04/22 05:02:35;;;;;;;16.13;9.93;;;;;;;;;;5052018;28;20029;-76
2022/04/22 05:05:01;;;;;;;14.52;9.43;;;;;;;;;;5053541;28;20162;-76
2022/04/22 05:07:26;;;;;;;16.63;9.63;;;;;;;;;;5053175;28;20110;-76
2022/04/22 05:09:54;;;;;;;15.45;9.77;;;;;;;;;;5053093;28;20159;-76
2022/04/22 05:12:19;;;;;;;15.70;9.85;;;;;;;;;;5052983;28;20029;-76
2022/04/22 05:14:48;;;;;;;16.20;10.33;;;;;;;;;;5052904;28;20036;-76
2022/04/22 05:17:13;;;;;;;18.38;10.10;;;;;;;;;;5055007;28;20296;-76
2022/04/22 05:19:38;;;;;;;17.38;9.30;;;;;;;;;;5053188;28;20025;-76
2022/04/22 05:22:04;;;;;;;16.33;9.43;;;;;;;;;;5053191;28;20032;-76
2022/04/22 05:24:31;;;;;;;16.25;9.80;;;;;;;;;;5052964;28;20262;-76
2022/04/22 05:26:56;;;;;;;17.45;10.52;;;;;;;;;;5053526;28;20027;-77
2022/04/22 05:34:49;;;;;;;16.50;10.50;;;;;;;;;;5052925;28;20441;-75
2022/04/22 05:37:14;;;;;;;17.85;10.90;;;;;;;;;;5051591;28;20025;-76
2022/04/22 05:39:43;;;;;;;18.98;10.40;;;;;;;;;;5052754;28;20143;-76
2022/04/22 05:42:08;;;;;;;15.43;9.40;;;;;;;;;;5053595;28;20390;-77
2022/04/22 05:44:34;;;;;;;16.75;9.93;;;;;;;;;;5053045;28;20075;-75
2022/04/22 05:46:59;;;;;;;15.95;10.13;;;;;;;;;;5053155;28;20071;-76
2022/04/22 05:49:24;;;;;;;17.97;10.60;;;;;;;;;;5052669;28;20130;-75
2022/04/22 05:51:49;;;;;;;16.27;10.15;;;;;;;;;;5052825;28;20297;-76
2022/04/22 05:54:14;;;;;;;15.95;10.40;;;;;;;;;;5053319;28;20153;-76
2022/04/22 05:56:40;;;;;;;15.83;10.13;;;;;;;;;;5051372;28;20029;-77
2022/04/22 05:59:05;;;;;;;18.02;10.57;;;;;;;;;;5053027;28;20395;-76
2022/04/22 06:01:30;;;;;;;15.90;9.87;;;;;;;;;;5052905;28;20024;-76
2022/04/22 06:03:55;;;;;;;15.02;9.55;;;;;;;;;;5051369;28;20273;-77
2022/04/22 06:06:21;;;;;;;18.10;10.68;;;;;;;;;;5052988;28;20481;-76
2022/04/22 06:11:31;;;;;;;17.80;9.75;;;;;;;;;;5056256;28;20451;-76
2022/04/22 06:13:56;;;;;;;16.52;9.90;;;;;;;;;;5054917;28;20485;-75
2022/04/22 06:16:21;;;;;;;14.77;9.18;;;;;;;;;;5055125;28;20033;-76
2022/04/22 06:18:47;;;;;;;18.60;10.63;;;;;;;;;;5056129;28;20031;-77
2022/04/22 06:21:12;;;;;;;17.98;10.35;;;;;;;;;;5056609;28;20109;-76
2022/04/22 06:23:38;;;;;;;19.63;11.75;;;;;;;;;;5056335;28;20033;-76
2022/04/22 06:26:03;;;;;;;18.33;11.52;;;;;;;;;;5054844;28;20456;-75
2022/04/22 06:28:29;;;;;;;21.77;12.00;;;;;;;;;;5055972;28;20063;-76
2022/04/22 06:30:54;;;;;;;18.70;11.70;;;;;;;;;;5056660;28;20112;-76
2022/04/22 06:33:20;;;;;;;20.27;11.60;;;;;;;;;;5056192;28;20297;-76
2022/04/22 06:35:45;;;;;;;21.80;12.85;;;;;;;;;;5056505;28;20029;-77
2022/04/22 06:38:18;;;;;;;19.25;11.70;;;;;;;;;;5057961;28;20527;-76
2022/04/22 06:46:16;;;;;;;22.20;13.80;;;;;;;;;;5056201;28;20055;-76
2022/04/22 06:48:43;;;;;;;27.92;14.57;;;;;;;;;;5055622;28;20031;-76
2022/04/22 06:51:09;;;;;;;26.73;14.30;;;;;;;;;;5055852;28;20086;-76
2022/04/22 06:53:35;;;;;;;26.70;14.05;;;;;;;;;;5055541;28;20032;-76
2022/04/22 06:56:02;;;;;;;26.10;14.32;;;;;;;;;;5055718;28;20028;-76
2022/04/22 06:58:30;;;;;;;26.13;15.38;;;;;;;;;;5055444;28;20494;-75
2022/04/22 07:00:55;;;;;;;26.35;15.43;;;;;;;;;;5055268;28;20141;-76
2022/04/22 07:03:21;;;;;;;28.85;16.02;;;;;;;;;;5055419;28;20585;-75
2022/04/22 07:05:48;;;;;;;27.70;15.43;;;;;;;;;;5055745;28;20048;-76
2022/04/22 07:08:14;;;;;;;25.75;15.10;;;;;;;;;;5056341;28;20025;-76
2022/04/22 07:10:47;;;;;;;29.50;15.93;;;;;;;;;;5054126;28;20016;-76
2022/04/22 07:13:14;;;;;;;30.58;16.95;;;;;;;;;;5053871;28;20502;-76
2022/04/22 07:15:40;;;;;;;28.92;16.65;;;;;;;;;;5055336;28;20039;-76
2022/04/22 07:18:06;;;;;;;30.83;16.58;;;;;;;;;;5055037;28;20024;-76
2022/04/22 07:20:32;;;;;;;27.45;15.32;;;;;;;;;;5054632;28;20177;-76
2022/04/22 07:22:59;;;;;;;28.27;16.42;;;;;;;;;;5054889;28;20497;-76
2022/04/22 07:25:25;;;;;;;31.90;17.05;;;;;;;;;;5053763;28;20502;-76
2022/04/22 07:27:50;;;;;;;30.88;18.00;;;;;;;;;;5054841;28;20092;-76
2022/04/22 07:30:17;;;;;;;31.52;17.58;;;;;;;;;;5055350;28;20029;-76
2022/04/22 07:32:48;;;;;;;32.80;17.63;;;;;;;;;;5053364;28;20025;-76
2022/04/22 07:35:15;;;;;;;30.50;17.52;;;;;;;;;;5055621;28;20067;-77
2022/04/22 07:37:42;;;;;;;31.88;15.82;;;;;;;;;;5055122;28;20386;-76
2022/04/22 07:40:08;;;;;;;31.02;16.50;;;;;;;;;;5055102;28;20025;-77
2022/04/22 07:42:35;;;;;;;31.58;16.80;;;;;;;;;;5055105;28;20020;-76
2022/04/22 07:47:49;;;;;;;31.58;16.40;;;;;;;;;;5055258;28;20089;-77
2022/04/22 07:50:17;;;;;;;27.73;16.35;;;;;;;;;;5054845;28;20404;-77
2022/04/22 07:52:44;;;;;;;30.50;16.73;;;;;;;;;;5054459;28;20017;-77
2022/04/22 07:55:11;;;;;;;31.50;17.10;;;;;;;;;;5054975;28;20106;-77
2022/04/22 07:57:36;;;;;;;28.80;17.08;;;;;;;;;;5054413;28;20556;-76
2022/04/22 08:00:03;;;;;;;29.73;17.50;;;;;;;;;;5053397;28;20060;-78
2022/04/22 08:02:29;;;;;;;32.70;16.95;;;;;;;;;;5054353;28;20033;-77
2022/04/22 08:04:54;;;;;;;34.08;17.02;;;;;;;;;;5054703;28;20039;-77
2022/04/22 08:07:19;;;;;;;31.83;17.38;;;;;;;;;;5054143;28;20440;-76
2022/04/22 08:09:45;;;;;;;32.33;17.30;;;;;;;;;;5053989;28;20086;-76
2022/04/22 08:12:12;;;;;;;30.15;15.88;;;;;;;;;;5054042;28;20095;-76
2022/04/22 08:14:38;;;;;;;34.58;17.98;;;;;;;;;;5052602;28;20139;-76
2022/04/22 08:17:03;;;;;;;31.50;17.20;;;;;;;;;;5052877;28;20498;-77
2022/04/22 08:19:28;;;;;;;33.67;17.63;;;;;;;;;;5054175;28;20385;-76
2022/04/22 08:21:53;;;;;;;30.77;16.50;;;;;;;;;;5054008;28;20020;-76
2022/04/22 08:24:19;;;;;;;31.52;17.63;;;;;;;;;;5053912;28;20280;-75
2022/04/22 08:26:45;;;;;;;29.90;17.33;;;;;;;;;;5053686;28;20025;-76
2022/04/22 08:29:10;;;;;;;32.35;17.13;;;;;;;;;;5053739;28;20021;-77
2022/04/22 08:31:36;;;;;;;31.42;16.50;;;;;;;;;;5053049;28;20389;-75
2022/04/22 08:34:02;;;;;;;30.08;16.92;;;;;;;;;;5053619;28;20048;-77
2022/04/22 08:36:28;;;;;;;31.38;16.67;;;;;;;;;;5053724;28;20478;-77
2022/04/22 08:38:55;;;;;;;27.98;16.88;;;;;;;;;;5053798;28;20086;-75
2022/04/22 08:41:21;;;;;;;29.35;16.27;;;;;;;;;;5053576;28;20052;-77
2022/04/22 08:43:47;;;;;;;28.17;16.88;;;;;;;;;;5053505;28;20067;-77
2022/04/22 08:51:44;;;;;;;30.10;17.00;;;;;;;;;;5054011;28;20505;-75
2022/04/22 08:54:10;;;;;;;27.10;15.63;;;;;;;;;;5052150;28;20025;-77
2022/04/22 08:56:36;;;;;;;29.50;16.65;;;;;;;;;;5053280;28;20027;-76
2022/04/22 08:59:02;;;;;;;27.38;16.92;;;;;;;;;;5052326;28;20475;-75
2022/04/22 09:01:27;;;;;;;27.65;15.88;;;;;;;;;;5053333;28;20055;-78
2022/04/22 09:03:52;;;;;;;28.95;16.10;;;;;;;;;;5053160;28;20025;-78
2022/04/22 09:06:20;;;;;;;26.05;15.93;;;;;;;;;;5053264;28;20027;-77
2022/04/22 09:08:45;;;;;;;26.13;15.48;;;;;;;;;;5053432;28;20079;-76
2022/04/22 09:11:11;;;;;;;25.10;14.68;;;;;;;;;;5053258;28;20401;-75
2022/04/22 09:13:37;;;;;;;28.05;15.70;;;;;;;;;;5053183;28;20032;-77
2022/04/22 09:16:02;;;;;;;22.48;12.85;;;;;;;;;;5052964;28;20041;-77
2022/04/22 09:18:27;;;;;;;22.13;12.00;;;;;;;;;;5053236;28;20039;-77
2022/04/22 09:21:02;;;;;;;21.83;12.27;;;;;;;;;;5053305;28;20143;-77
2022/04/22 09:23:35;;;;;;;23.23;13.30;;;;;;;;;;5053344;28;20025;-77
2022/04/22 09:26:04;;;;;;;23.70;13.68;;;;;;;;;;5053153;28;20033;-76
2022/04/22 09:28:29;;;;;;;21.17;12.43;;;;;;;;;;5051845;28;20425;-76
2022/04/22 09:30:59;;;;;;;20.75;11.95;;;;;;;;;;5053212;28;20021;-76
2022/04/22 09:33:25;;;;;;;19.80;12.15;;;;;;;;;;5052001;28;20497;-77
2022/04/22 09:45:04;;;;;;;16.30;10.82;;;;;;;;;;5056934;28;20028;-76
2022/04/22 09:47:31;;;;;;;15.90;10.25;;;;;;;;;;5057187;28;20029;-76
2022/04/22 09:49:57;;;;;;;13.68;9.20;;;;;;;;;;5056678;28;20490;-76
2022/04/22 09:52:27;;;;;;;17.88;10.70;;;;;;;;;;5057124;28;20549;-75
2022/04/22 09:55:01;;;;;;;20.90;12.48;;;;;;;;;;5057029;28;20025;-76
2022/04/22 09:57:26;;;;;;;16.95;10.40;;;;;;;;;;5056679;28;20017;-77
2022/04/22 09:59:52;;;;;;;22.92;11.35;;;;;;;;;;5055213;28;20390;-77
2022/04/22 10:02:21;;;;;;;20.05;11.93;;;;;;;;;;5056524;28;20107;-76
2022/04/22 10:04:48;;;;;;;19.80;12.70;;;;;;;;;;5056468;28;20029;-76
2022/04/22 10:07:16;;;;;;;17.05;9.98;;;;;;;;;;5056550;28;20036;-75
2022/04/22 10:09:43;;;;;;;20.25;12.05;;;;;;;;;;5056171;28;20382;-76
2022/04/22 10:12:10;;;;;;;18.13;12.02;;;;;;;;;;5056244;28;20048;-76
2022/04/22 10:14:38;;;;;;;22.20;13.07;;;;;;;;;;5056042;28;20106;-76
2022/04/22 10:17:05;;;;;;;19.35;11.95;;;;;;;;;;5056099;28;20025;-76
2022/04/22 10:19:34;;;;;;;19.42;12.55;;;;;;;;;;5056084;28;20025;-76
2022/04/22 10:22:01;;;;;;;24.15;15.02;;;;;;;;;;5056352;28;20036;-76
2022/04/22 10:24:27;;;;;;;23.45;14.18;;;;;;;;;;5056221;28;20021;-75
2022/04/22 10:26:52;;;;;;;23.33;14.20;;;;;;;;;;5056096;28;20060;-76
2022/04/22 10:29:19;;;;;;;23.67;13.95;;;;;;;;;;5055676;28;20056;-76
2022/04/22 10:31:45;;;;;;;24.27;14.30;;;;;;;;;;5055938;28;20104;-75
2022/04/22 10:34:10;;;;;;;22.27;14.13;;;;;;;;;;5055617;28;20055;-76
2022/04/22 10:36:38;;;;;;;22.52;13.32;;;;;;;;;;5055627;28;20051;-77
2022/04/22 10:39:04;;;;;;;21.75;10.73;;;;;;;;;;5054337;28;20505;-76
2022/04/22 10:41:43;;;;;;;19.75;13.15;;;;;;;;;;5055794;28;20032;-76
2022/04/22 10:49:39;;;;;;;20.00;13.25;;;;;;;;;;5055591;28;20056;-77
2022/04/22 10:52:11;;;;;;;22.02;14.60;;;;;;;;;;5054144;28;20024;-76
2022/04/22 10:54:51;;;;;;;24.83;15.73;;;;;;;;;;5054537;28;20550;-76
2022/04/22 10:57:27;;;;;;;21.67;14.15;;;;;;;;;;5055187;28;20025;-76
2022/04/22 11:00:07;;;;;;;19.73;14.07;;;;;;;;;;5055566;28;20021;-76
2022/04/22 11:02:35;;;;;;;24.60;15.60;;;;;;;;;;5055392;28;20482;-76
2022/04/22 11:05:19;;;;;;;20.08;13.20;;;;;;;;;;5053779;28;20025;-76
2022/04/22 11:07:50;;;;;;;21.42;12.88;;;;;;;;;;5055183;28;20029;-75
2022/04/22 11:10:16;;;;;;;20.25;11.55;;;;;;;;;;5055194;28;20025;-76
2022/04/22 11:12:55;;;;;;;21.42;14.55;;;;;;;;;;5055156;28;20394;-76
2022/04/22 11:15:43;;;;;;;21.85;13.30;;;;;;;;;;5055074;28;20033;-76
2022/04/22 11:18:12;;;;;;;21.10;13.20;;;;;;;;;;5055112;28;20096;-76
2022/04/22 11:21:03;;;;;;;20.20;12.32;;;;;;;;;;5055160;28;20033;-76
2022/04/22 11:23:40;;;;;;;17.17;12.07;;;;;;;;;;5055368;28;20020;-77
2022/04/22 11:26:07;;;;;;;17.77;12.05;;;;;;;;;;5053641;28;20025;-76
2022/04/22 11:28:40;;;;;;;19.83;12.25;;;;;;;;;;5055006;28;20021;-77
2022/04/22 11:31:07;;;;;;;18.60;11.52;;;;;;;;;;5054718;28;20017;-76
2022/04/22 11:34:07;;;;;;;13.98;8.88;;;;;;;;;;5054616;28;20036;-76
2022/04/22 11:36:43;;;;;;;16.83;10.15;;;;;;;;;;5051264;28;20120;-76
2022/04/22 11:39:12;;;;;;;16.17;9.13;;;;;;;;;;5054448;28;20029;-76
2022/04/22 11:41:52;;;;;;;13.52;8.90;;;;;;;;;;5053179;28;20203;-77
2022/04/22 11:44:21;;;;;;;13.93;9.35;;;;;;;;;;5054769;28;20036;-76
2022/04/22 11:46:46;;;;;;;18.45;10.95;;;;;;;;;;5053160;28;20029;-76
2022/04/22 11:49:11;;;;;;;19.85;11.50;;;;;;;;;;5052933;28;20028;-76
2022/04/22 11:51:37;;;;;;;15.32;9.32;;;;;;;;;;5054399;28;20025;-75
2022/04/22 11:54:02;;;;;;;13.30;9.27;;;;;;;;;;5054240;28;20100;-76
2022/04/22 11:56:27;;;;;;;14.30;9.63;;;;;;;;;;5053934;28;20025;-77
2022/04/22 11:58:54;;;;;;;18.77;9.40;;;;;;;;;;5054487;28;20073;-77
2022/04/22 12:06:57;;;;;;;13.10;8.43;;;;;;;;;;5053354;28;20056;-76
2022/04/22 12:09:22;;;;;;;12.15;8.25;;;;;;;;;;5053804;28;20043;-77
2022/04/22 12:11:50;;;;;;;16.43;9.00;;;;;;;;;;5054324;28;20020;-76
2022/04/22 12:14:23;;;;;;;14.25;8.88;;;;;;;;;;5054175;28;20272;-76
2022/04/22 12:16:56;;;;;;;18.00;8.93;;;;;;;;;;5054469;28;20142;-77
2022/04/22 12:19:23;;;;;;;11.57;6.18;;;;;;;;;;5054186;28;20462;-77
2022/04/22 12:21:48;;;;;;;14.45;9.88;;;;;;;;;;5053970;28;20033;-77
2022/04/22 12:24:15;;;;;;;13.02;9.20;;;;;;;;;;5054103;28;20500;-77
2022/04/22 12:26:41;;;;;;;13.68;7.90;;;;;;;;;;5053837;28;20025;-76
2022/04/22 12:29:10;;;;;;;10.25;7.00;;;;;;;;;;5053787;28;20021;-76
2022/04/22 12:31:40;;;;;;;11.15;8.38;;;;;;;;;;5054018;28;20025;-77
2022/04/22 12:34:09;;;;;;;13.82;9.43;;;;;;;;;;5052368;28;20108;-77
2022/04/22 12:36:52;;;;;;;14.55;8.57;;;;;;;;;;5053679;28;20506;-77
2022/04/22 12:39:38;;;;;;;9.57;6.40;;;;;;;;;;5053481;28;20037;-77
2022/04/22 12:42:05;;;;;;;12.90;8.35;;;;;;;;;;5052115;28;20047;-77
2022/04/22 12:44:30;;;;;;;9.13;6.07;;;;;;;;;;5052372;28;20371;-76
2022/04/22 12:52:34;;;;;;;14.90;8.45;;;;;;;;;;5053442;28;20036;-75
2022/04/22 12:55:02;;;;;;;14.20;6.60;;;;;;;;;;5053406;28;20021;-77
2022/04/22 12:57:28;;;;;;;10.27;6.72;;;;;;;;;;5053198;28;20040;-76
2022/04/22 12:59:55;;;;;;;12.07;7.60;;;;;;;;;;5052974;28;20020;-76
2022/04/22 13:02:29;;;;;;;11.25;8.02;;;;;;;;;;5053142;28;20051;-78
2022/04/22 13:04:56;;;;;;;12.55;7.65;;;;;;;;;;5051892;28;20093;-77
2022/04/22 13:07:22;;;;;;;10.65;6.85;;;;;;;;;;5053432;28;20035;-77
2022/04/22 13:09:49;;;;;;;13.77;8.93;;;;;;;;;;5052977;28;20416;-77
2022/04/22 13:12:14;;;;;;;9.93;6.00;;;;;;;;;;5053252;28;20492;-77
2022/04/22 13:14:40;;;;;;;16.38;9.40;;;;;;;;;;5052801;28;20036;-76
2022/04/22 13:17:06;;;;;;;14.55;9.18;;;;;;;;;;5052894;28;20485;-76
2022/04/22 13:19:32;;;;;;;16.40;9.68;;;;;;;;;;5052788;28;20083;-76
2022/04/22 13:21:57;;;;;;;18.73;9.82;;;;;;;;;;5051694;28;20024;-76
2022/04/22 13:24:23;;;;;;;14.25;7.70;;;;;;;;;;5051597;28;20533;-77
2022/04/22 13:26:48;;;;;;;11.10;7.88;;;;;;;;;;5052957;28;20033;-77
2022/04/22 13:29:14;;;;;;;10.73;6.90;;;;;;;;;;5052720;28;20024;-78
2022/04/22 13:31:39;;;;;;;14.63;9.87;;;;;;;;;;5052926;28;20017;-77
2022/04/22 13:34:04;;;;;;;12.53;7.50;;;;;;;;;;5052753;28;20345;-77
2022/04/22 13:36:35;;;;;;;12.18;7.97;;;;;;;;;;5052958;28;20284;-77
2022/04/22 13:39:00;;;;;;;15.10;10.02;;;;;;;;;;5052936;28;20033;-76
2022/04/22 13:41:25;;;;;;;13.02;7.70;;;;;;;;;;5052772;28;20021;-77
2022/04/22 13:43:51;;;;;;;14.95;9.65;;;;;;;;;;5053446;28;20131;-77
2022/04/22 13:54:27;;;;;;;19.73;10.43;;;;;;;;;;5052597;28;20166;-77
2022/04/22 13:56:53;;;;;;;19.40;12.10;;;;;;;;;;5052700;28;20039;-76
2022/04/22 13:59:18;;;;;;;20.45;11.35;;;;;;;;;;5051139;28;20400;-76
2022/04/22 14:01:43;;;;;;;15.60;10.10;;;;;;;;;;5052384;28;20062;-77
2022/04/22 14:04:09;;;;;;;20.40;12.07;;;;;;;;;;5052703;28;20346;-76
2022/04/22 14:06:34;;;;;;;24.23;13.15;;;;;;;;;;5052476;28;20261;-76
2022/04/22 14:09:01;;;;;;;18.65;12.40;;;;;;;;;;5052353;28;20028;-77
2022/04/22 14:11:28;;;;;;;21.67;12.93;;;;;;;;;;5052002;28;20074;-76
2022/04/22 14:13:54;;;;;;;22.25;13.20;;;;;;;;;;5052200;28;20145;-76
2022/04/22 14:16:19;;;;;;;20.02;13.05;;;;;;;;;;5052405;28;20111;-76
2022/04/22 14:18:44;;;;;;;22.50;13.95;;;;;;;;;;5052264;28;20021;-77
2022/04/22 14:21:09;;;;;;;23.30;15.17;;;;;;;;;;5052355;28;20111;-76
2022/04/22 14:23:34;;;;;;;21.63;13.00;;;;;;;;;;5052205;28;20297;-76
2022/04/22 14:26:00;;;;;;;25.03;14.27;;;;;;;;;;5052101;28;20376;-76
2022/04/22 14:28:26;;;;;;;24.30;15.20;;;;;;;;;;5052235;28;20266;-76
2022/04/22 14:30:53;;;;;;;20.33;12.68;;;;;;;;;;5055333;28;20071;-76
2022/04/22 14:33:19;;;;;;;21.27;14.15;;;;;;;;;;5055887;28;20033;-76
2022/04/22 14:35:44;;;;;;;19.48;13.45;;;;;;;;;;5055794;28;20017;-76
2022/04/22 14:38:10;;;;;;;22.67;12.38;;;;;;;;;;5055812;28;20037;-76
2022/04/22 14:40:35;;;;;;;26.77;14.60;;;;;;;;;;5054381;28;20074;-77
2022/04/22 14:43:01;;;;;;;27.38;15.35;;;;;;;;;;5055807;28;20394;-77
2022/04/22 14:45:28;;;;;;;22.40;13.70;;;;;;;;;;5055717;28;20021;-76
2022/04/22 14:47:55;;;;;;;22.83;15.25;;;;;;;;;;5055544;28;20110;-76
2022/04/22 14:50:21;;;;;;;24.70;15.32;;;;;;;;;;5055643;28;20021;-77
2022/04/22 14:52:47;;;;;;;26.13;14.88;;;;;;;;;;5055510;28;20154;-75
2022/04/22 14:55:12;;;;;;;29.13;17.20;;;;;;;;;;5055315;28;20060;-76
2022/04/22 14:57:38;;;;;;;26.45;15.02;;;;;;;;;;5053873;28;20551;-76
2022/04/22 15:00:08;;;;;;;25.27;16.20;;;;;;;;;;5053930;28;20029;-76
2022/04/22 15:02:34;;;;;;;23.63;14.43;;;;;;;;;;5055403;28;20437;-75
2022/04/22 15:04:59;;;;;;;27.95;14.90;;;;;;;;;;5055271;28;20017;-75
2022/04/22 15:07:27;;;;;;;21.75;13.65;;;;;;;;;;5053979;28;20017;-77
2022/04/22 15:09:52;;;;;;;24.35;12.52;;;;;;;;;;5055164;28;20031;-76
2022/04/22 15:12:18;;;;;;;27.27;16.65;;;;;;;;;;5053875;28;20119;-76
2022/04/22 15:14:43;;;;;;;23.02;12.80;;;;;;;;;;5055037;28;20058;-77
2022/04/22 15:17:09;;;;;;;22.85;13.88;;;;;;;;;;5055255;28;20047;-77
2022/04/22 15:25:02;;;;;;;22.20;12.43;;;;;;;;;;5055374;28;20035;-76
2022/04/22 15:27:30;;;;;;;21.13;12.07;;;;;;;;;;5055060;28;20108;-76
2022/04/22 15:29:57;;;;;;;17.73;10.80;;;;;;;;;;5054809;28;20017;-77
2022/04/22 15:32:22;;;;;;;24.58;13.90;;;;;;;;;;5053514;28;20025;-78
2022/04/22 15:34:47;;;;;;;20.10;12.50;;;;;;;;;;5054746;28;20394;-77
2022/04/22 15:37:12;;;;;;;20.13;11.93;;;;;;;;;;5054597;28;20619;-77
2022/04/22 15:39:38;;;;;;;22.75;11.85;;;;;;;;;;5054413;28;20037;-76
2022/04/22 15:42:03;;;;;;;22.77;13.80;;;;;;;;;;5054413;28;20390;-76